createdAt,value
2022-12-13T00:00:15.899Z,-3.3
2022-12-13T00:02:17.022Z,-3.3
2022-12-13T00:04:18.127Z,-3.3
2022-12-13T00:06:22.493Z,-3.4
2022-12-13T00:08:23.522Z,-3.3
2022-12-13T00:10:24.565Z,-3.4
2022-12-13T00:12:25.628Z,-3.4
2022-12-13T00:14:26.700Z,-3.4
2022-12-13T00:16:27.813Z,-3.4
2022-12-13T00:18:28.841Z,-3.5
2022-12-13T00:20:33.213Z,-3.5
2022-12-13T00:22:34.264Z,-3.5
2022-12-13T00:24:35.360Z,-3.5
2022-12-13T00:26:36.445Z,-3.6
2022-12-13T00:28:37.409Z,-3.6
2022-12-13T00:30:38.520Z,-3.7
2022-12-13T00:32:39.553Z,-3.7
2022-12-13T00:34:43.992Z,-3.7
2022-12-13T00:36:45.077Z,-3.6
2022-12-13T00:38:46.162Z,-3.6
2022-12-13T00:40:47.226Z,-3.6
2022-12-13T00:42:48.308Z,-3.5
2022-12-13T00:44:49.380Z,-3.6
2022-12-13T00:46:50.448Z,-3.6
2022-12-13T00:48:54.867Z,-3.6
2022-12-13T00:52:57.017Z,-3.6
2022-12-13T00:53:59.211Z,-3.5
2022-12-13T00:56:01.860Z,-3.5
2022-12-13T00:58:02.916Z,-3.5
2022-12-13T01:00:03.955Z,-3.6
2022-12-13T01:02:08.376Z,-3.6
2022-12-13T01:04:09.488Z,-3.6
2022-12-13T01:06:15.664Z,-3.6
2022-12-13T01:08:05.828Z,-3.6
2022-12-13T01:10:06.828Z,-3.6
2022-12-13T01:12:07.804Z,-3.6
2022-12-13T01:14:08.898Z,-3.6
2022-12-13T01:16:13.282Z,-3.6
2022-12-13T01:18:14.285Z,-3.6
2022-12-13T01:20:15.355Z,-3.6
2022-12-13T01:22:16.432Z,-3.6
2022-12-13T01:24:17.474Z,-3.7
2022-12-13T01:26:18.525Z,-3.7
2022-12-13T01:28:19.616Z,-3.7
2022-12-13T01:30:24.012Z,-3.8
2022-12-13T01:32:25.064Z,-3.9
2022-12-13T01:34:26.891Z,-3.8
2022-12-13T01:36:28.421Z,-3.9
2022-12-13T01:38:28.280Z,-3.9
2022-12-13T01:40:29.309Z,-3.9
2022-12-13T01:42:30.394Z,-4
2022-12-13T01:44:34.812Z,-4
2022-12-13T01:46:35.976Z,-4
2022-12-13T01:48:36.909Z,-4.1
2022-12-13T01:51:03.705Z,-4
2022-12-13T01:53:04.743Z,-4
2022-12-13T01:55:05.801Z,-4
2022-12-13T01:57:10.279Z,-4
2022-12-13T02:01:12.444Z,-4.1
2022-12-13T02:03:21.093Z,-4.1
2022-12-13T02:05:14.794Z,-4.1
2022-12-13T02:07:23.236Z,-4.2
2022-12-13T02:09:16.567Z,-4.2
2022-12-13T02:11:20.996Z,-4.3
2022-12-13T02:13:22.069Z,-4.4
2022-12-13T02:15:23.113Z,-4.4
2022-12-13T02:17:24.162Z,-4.4
2022-12-13T02:19:25.204Z,-4.4
2022-12-13T02:25:31.714Z,-4.4
2022-12-13T02:27:32.797Z,-4.4
2022-12-13T02:29:33.790Z,-4.4
2022-12-13T02:31:34.909Z,-4.4
2022-12-13T02:33:35.903Z,-4.4
2022-12-13T02:35:36.946Z,-4.4
2022-12-13T02:37:37.985Z,-4.4
2022-12-13T02:39:42.374Z,-4.4
2022-12-13T02:41:43.428Z,-4.4
2022-12-13T02:43:45.331Z,-4.4
2022-12-13T02:44:46.680Z,-4.4
2022-12-13T02:46:47.723Z,-4.4
2022-12-13T02:48:48.746Z,-4.4
2022-12-13T02:50:49.807Z,-4.4
2022-12-13T02:52:54.187Z,-4.3
2022-12-13T02:54:55.248Z,-4.4
2022-12-13T02:58:57.315Z,-4.4
2022-12-13T03:00:58.349Z,-4.4
2022-12-13T03:02:59.529Z,-4.4
2022-12-13T03:13:07.958Z,-4.4
2022-12-13T03:15:08.958Z,-4.5
2022-12-13T03:17:10.009Z,-4.5
2022-12-13T03:19:11.026Z,-4.5
2022-12-13T03:21:15.434Z,-4.6
2022-12-13T03:23:16.467Z,-4.5
2022-12-13T03:25:32.069Z,-4.6
2022-12-13T03:27:18.544Z,-4.5
2022-12-13T03:29:24.528Z,-4.5
2022-12-13T03:31:20.605Z,-4.5
2022-12-13T03:33:21.634Z,-4.5
2022-12-13T03:35:34.862Z,-4.5
2022-12-13T03:37:27.049Z,-4.5
2022-12-13T03:39:28.066Z,-4.4
2022-12-13T03:42:31.316Z,-4.4
2022-12-13T03:46:33.415Z,-4.4
2022-12-13T03:48:37.769Z,-4.4
2022-12-13T03:50:38.796Z,-4.4
2022-12-13T03:52:39.839Z,-4.4
2022-12-13T03:54:40.854Z,-4.4
2022-12-13T03:56:41.880Z,-4.4
2022-12-13T03:58:42.891Z,-4.4
2022-12-13T04:00:43.899Z,-4.4
2022-12-13T04:02:48.392Z,-4.5
2022-12-13T04:04:49.338Z,-4.5
2022-12-13T04:06:50.343Z,-4.4
2022-12-13T04:08:51.544Z,-4.4
2022-12-13T04:10:52.365Z,-4.4
2022-12-13T04:12:53.410Z,-4.4
2022-12-13T04:14:54.427Z,-4.4
2022-12-13T04:16:58.812Z,-4.6
2022-12-13T04:18:59.866Z,-4.6
2022-12-13T04:21:00.894Z,-4.7
2022-12-13T04:23:10.181Z,-4.7
2022-12-13T04:25:02.946Z,-4.7
2022-12-13T04:27:03.957Z,-4.7
2022-12-13T04:33:10.390Z,-4.7
2022-12-13T04:35:11.426Z,-4.7
2022-12-13T04:36:13.628Z,-4.7
2022-12-13T04:38:14.624Z,-4.7
2022-12-13T04:40:21.818Z,-4.7
2022-12-13T04:42:16.699Z,-4.7
2022-12-13T04:44:28.340Z,-4.8
2022-12-13T04:50:24.156Z,-4.9
2022-12-13T04:52:25.191Z,-4.9
2022-12-13T04:54:26.194Z,-4.9
2022-12-13T04:58:31.601Z,-5
2022-12-13T05:00:32.630Z,-5
2022-12-13T05:02:33.758Z,-5
2022-12-13T05:04:34.688Z,-5
2022-12-13T05:06:35.668Z,-5.1
2022-12-13T05:08:36.684Z,-5.1
2022-12-13T05:12:42.096Z,-5.2
2022-12-13T05:16:44.205Z,-5.2
2022-12-13T05:18:45.231Z,-5.2
2022-12-13T05:20:46.150Z,-5.2
2022-12-13T05:22:47.183Z,-5.2
2022-12-13T05:24:48.196Z,-5.2
2022-12-13T05:26:52.570Z,-5.2
2022-12-13T05:28:53.552Z,-5.2
2022-12-13T05:30:54.588Z,-5.2
2022-12-13T05:33:23.280Z,-5.2
2022-12-13T05:35:24.406Z,-5.2
2022-12-13T05:37:25.274Z,-5.2
2022-12-13T05:39:30.277Z,-5.2
2022-12-13T05:41:30.687Z,-5.2
2022-12-13T05:43:43.334Z,-5.2
2022-12-13T05:45:32.946Z,-5.2
2022-12-13T05:47:33.727Z,-5.2
2022-12-13T05:49:34.779Z,-5.2
2022-12-13T05:51:35.765Z,-5.2
2022-12-13T05:53:40.175Z,-5.2
2022-12-13T05:55:41.160Z,-5.2
2022-12-13T05:57:42.174Z,-5.2
2022-12-13T05:59:43.201Z,-5.2
2022-12-13T06:01:44.272Z,-5.3
2022-12-13T06:03:45.384Z,-5.3
2022-12-13T06:05:46.182Z,-5.3
2022-12-13T06:07:55.198Z,-5.3
2022-12-13T06:09:51.599Z,-5.3
2022-12-13T06:11:52.601Z,-5.4
2022-12-13T06:14:00.702Z,-5.3
2022-12-13T06:17:55.587Z,-5.4
2022-12-13T06:19:56.583Z,-5.4
2022-12-13T06:22:00.981Z,-5.4
2022-12-13T06:24:01.984Z,-5.4
2022-12-13T06:26:02.968Z,-5.5
2022-12-13T06:27:05.152Z,-5.6
2022-12-13T06:29:06.142Z,-5.6
2022-12-13T06:41:15.568Z,-5.6
2022-12-13T06:43:16.580Z,-5.6
2022-12-13T06:45:19.126Z,-5.5
2022-12-13T06:47:31.325Z,-5.5
2022-12-13T06:51:32.878Z,-5.6
2022-12-13T06:53:26.459Z,-5.6
2022-12-13T06:55:27.443Z,-5.6
2022-12-13T06:57:28.433Z,-5.6
2022-12-13T06:59:29.450Z,-5.6
2022-12-13T07:01:37.549Z,-5.6
2022-12-13T07:03:34.833Z,-5.6
2022-12-13T07:05:35.820Z,-5.6
2022-12-13T07:07:36.807Z,-5.5
2022-12-13T07:09:37.823Z,-5.6
2022-12-13T07:11:38.840Z,-5.5
2022-12-13T07:15:40.857Z,-5.4
2022-12-13T07:17:45.193Z,-5.5
2022-12-13T07:19:46.454Z,-5.6
2022-12-13T07:21:47.191Z,-5.7
2022-12-13T07:22:52.436Z,-5.7
2022-12-13T07:24:50.349Z,-5.7
2022-12-13T07:26:51.348Z,-5.7
2022-12-13T07:28:55.326Z,-5.6
2022-12-13T07:30:56.767Z,-5.5
2022-12-13T07:32:57.703Z,-5.5
2022-12-13T07:34:58.687Z,-5.5
2022-12-13T07:36:59.692Z,-5.4
2022-12-13T07:39:00.682Z,-5.4
2022-12-13T07:41:01.809Z,-5.4
2022-12-13T07:43:02.671Z,-5.3
2022-12-13T07:45:07.043Z,-5.3
2022-12-13T07:47:08.068Z,-5.3
2022-12-13T07:49:09.098Z,-5.3
2022-12-13T07:51:10.102Z,-5.3
2022-12-13T07:53:11.104Z,-5.2
2022-12-13T07:55:12.093Z,-5.2
2022-12-13T07:57:13.127Z,-5.2
2022-12-13T07:59:17.492Z,-5.1
2022-12-13T08:01:18.715Z,-5
2022-12-13T08:03:24.225Z,-4.9
2022-12-13T08:05:25.712Z,-4.8
2022-12-13T08:07:21.505Z,-4.8
2022-12-13T08:09:22.495Z,-4.7
2022-12-13T08:11:23.502Z,-4.7
2022-12-13T08:13:27.909Z,-4.8
2022-12-13T08:15:28.903Z,-4.8
2022-12-13T08:17:29.922Z,-4.8
2022-12-13T08:18:32.111Z,-4.7
2022-12-13T08:20:33.107Z,-4.7
2022-12-13T08:22:35.911Z,-4.4
2022-12-13T08:24:35.140Z,-3.9
2022-12-13T08:26:39.522Z,-3.7
2022-12-13T08:28:40.549Z,-3.7
2022-12-13T08:30:41.608Z,-3.9
2022-12-13T08:32:42.637Z,-4.1
2022-12-13T08:34:43.652Z,-4.2
2022-12-13T08:36:44.694Z,-4.2
2022-12-13T08:38:45.722Z,-4.2
2022-12-13T08:42:51.155Z,-4.2
2022-12-13T08:44:52.205Z,-4.1
2022-12-13T08:46:53.282Z,-4.2
2022-12-13T08:48:54.295Z,-4.3
2022-12-13T08:50:55.300Z,-4
2022-12-13T08:52:56.343Z,-3.6
2022-12-13T08:55:00.793Z,-3.4
2022-12-13T08:57:01.844Z,-3.5
2022-12-13T08:59:02.897Z,-3.5
2022-12-13T09:01:03.990Z,-3.6
2022-12-13T09:03:05.004Z,-3.2
2022-12-13T09:05:06.086Z,-3
2022-12-13T09:07:07.164Z,-3
2022-12-13T09:09:11.584Z,-3.6
2022-12-13T09:11:23.880Z,-3.6
2022-12-13T09:13:13.745Z,-3.6
2022-12-13T09:15:46.143Z,-3.3
2022-12-13T09:17:43.625Z,-3.2
2022-12-13T09:19:44.687Z,-2.6
2022-12-13T09:21:49.096Z,1.4
2022-12-13T09:23:50.168Z,2.1
2022-12-13T09:27:52.250Z,4
2022-12-13T09:29:53.235Z,5
2022-12-13T09:31:54.331Z,5.2
2022-12-13T09:33:55.233Z,5.1
2022-12-13T09:36:01.441Z,5.7
2022-12-13T09:38:00.524Z,5.7
2022-12-13T09:40:16.174Z,5.5
2022-12-13T09:42:10.168Z,6
2022-12-13T09:44:03.654Z,6.6
2022-12-13T09:46:04.748Z,7.4
2022-12-13T09:48:13.511Z,7.7
2022-12-13T09:50:14.765Z,7
2022-12-13T09:52:21.741Z,6.9
2022-12-13T09:54:12.303Z,7
2022-12-13T09:56:13.358Z,6.6
2022-12-13T09:58:14.435Z,7.8
2022-12-13T10:00:15.522Z,7.6
2022-12-13T10:02:16.717Z,7.4
2022-12-13T10:04:21.010Z,7.3
2022-12-13T10:06:23.418Z,7.2
2022-12-13T10:09:25.479Z,6.4
2022-12-13T10:11:32.558Z,6.8
2022-12-13T10:13:27.831Z,6.4
2022-12-13T10:15:28.944Z,5.7
2022-12-13T10:17:38.320Z,5.2
2022-12-13T10:19:34.526Z,5.3
2022-12-13T10:21:35.685Z,5.3
2022-12-13T10:23:59.782Z,4.3
2022-12-13T10:25:38.048Z,4.4
2022-12-13T10:27:39.172Z,4.8
2022-12-13T10:31:44.751Z,2.6
2022-12-13T10:33:45.902Z,1.4
2022-12-13T10:35:47.043Z,0.4
2022-12-13T10:37:48.210Z,-0.4
2022-12-13T10:39:49.357Z,-0.7
2022-12-13T10:41:50.514Z,-0.6
2022-12-13T10:43:51.686Z,-0.4
2022-12-13T10:45:56.078Z,-0.5
2022-12-13T10:48:03.753Z,-0.5
2022-12-13T10:49:59.379Z,-0.6
2022-12-13T10:51:59.445Z,-0.6
2022-12-13T10:54:00.581Z,-0.6
2022-12-13T10:56:02.379Z,-0.4
2022-12-13T11:00:07.146Z,-0.4
2022-12-13T11:02:08.325Z,-0.5
2022-12-13T11:04:09.347Z,-0.4
2022-12-13T11:05:11.593Z,-0.6
2022-12-13T11:07:12.667Z,-0.6
2022-12-13T11:09:22.884Z,-0.7
2022-12-13T11:11:14.876Z,-0.5
2022-12-13T11:13:19.256Z,-0.6
2022-12-13T11:15:23.148Z,-0.6
2022-12-13T11:17:21.446Z,-0.6
2022-12-13T11:23:24.732Z,-0.7
2022-12-13T11:25:25.823Z,-0.7
2022-12-13T11:27:30.204Z,-0.4
2022-12-13T11:29:31.278Z,-0.4
2022-12-13T11:31:32.394Z,-0.5
2022-12-13T11:33:33.429Z,-0.2
2022-12-13T11:35:34.526Z,0.4
2022-12-13T11:37:35.594Z,0.2
2022-12-13T11:39:36.683Z,-0.1
2022-12-13T11:41:41.030Z,0
2022-12-13T11:43:42.087Z,-0.1
2022-12-13T11:47:44.251Z,0
2022-12-13T11:49:45.344Z,-0.3
2022-12-13T11:51:46.415Z,-0.5
2022-12-13T11:53:47.479Z,-0.2
2022-12-13T11:55:51.839Z,-0.1
2022-12-13T11:57:52.925Z,-0.1
2022-12-13T11:59:53.978Z,-0.4
2022-12-13T12:00:56.162Z,-0.6
2022-12-13T12:02:57.326Z,-0.7
2022-12-13T12:05:00.760Z,-0.7
2022-12-13T12:07:12.172Z,-0.6
2022-12-13T12:09:03.743Z,-0.5
2022-12-13T12:11:04.814Z,-0.6
2022-12-13T12:13:05.919Z,-0.6
2022-12-13T12:15:15.178Z,-0.5
2022-12-13T12:19:09.154Z,-0.7
2022-12-13T12:21:10.203Z,-0.7
2022-12-13T12:23:14.564Z,-0.6
2022-12-13T12:25:15.621Z,-0.6
2022-12-13T12:27:22.237Z,-0.7
2022-12-13T12:29:17.761Z,-0.8
2022-12-13T12:31:18.942Z,-0.6
2022-12-13T12:33:19.945Z,-0.4
2022-12-13T12:35:22.569Z,-0.4
2022-12-13T12:37:26.856Z,-0.5
2022-12-13T12:39:27.935Z,-0.5
2022-12-13T12:41:29.016Z,-0.4
2022-12-13T12:45:55.964Z,0
2022-12-13T12:48:07.295Z,-0.4
2022-12-13T12:49:33.437Z,-0.6
2022-12-13T12:51:37.672Z,-0.7
2022-12-13T12:53:38.752Z,-0.8
2022-12-13T12:55:39.834Z,-0.8
2022-12-13T12:58:08.317Z,-0.7
2022-12-13T13:00:09.489Z,-0.6
2022-12-13T13:02:10.522Z,-0.7
2022-12-13T13:04:22.683Z,-0.9
2022-12-13T13:06:15.909Z,-0.8
2022-12-13T13:08:17.014Z,-0.8
2022-12-13T13:10:26.084Z,-0.7
2022-12-13T13:12:30.187Z,-0.8
2022-12-13T13:14:20.217Z,-0.8
2022-12-13T13:16:21.319Z,-0.8
2022-12-13T13:18:25.995Z,-0.7
2022-12-13T13:20:26.881Z,-0.7
2022-12-13T13:22:31.415Z,-0.8
2022-12-13T13:24:28.866Z,-0.8
2022-12-13T13:26:35.899Z,-0.9
2022-12-13T13:32:36.419Z,-1
2022-12-13T13:34:37.475Z,-1
2022-12-13T13:36:38.546Z,-1.1
2022-12-13T13:40:40.683Z,-1.2
2022-12-13T13:42:41.730Z,-1.2
2022-12-13T13:48:48.186Z,-1.2
2022-12-13T13:52:23.693Z,-1.2
2022-12-13T13:55:55.882Z,-1.3
2022-12-13T13:58:09.655Z,-1.4
2022-12-13T13:59:58.931Z,-1.5
2022-12-13T14:02:01.586Z,-1.4
2022-12-13T14:04:01.025Z,-1.5
2022-12-13T14:06:02.082Z,-1.5
2022-12-13T14:08:03.126Z,-1.5
2022-12-13T14:10:04.174Z,-1.6
2022-12-13T14:12:05.211Z,-1.6
2022-12-13T14:14:21.775Z,-1.6
2022-12-13T14:16:11.999Z,-1.6
2022-12-13T14:18:11.624Z,-1.7
2022-12-13T14:20:12.681Z,-1.7
2022-12-13T14:22:13.685Z,-1.7
2022-12-13T14:24:14.758Z,-1.7
2022-12-13T14:26:15.763Z,-1.7
2022-12-13T14:28:20.102Z,-1.7
2022-12-13T14:30:28.172Z,-1.7
2022-12-13T14:32:26.408Z,-1.7
2022-12-13T14:34:23.205Z,-1.7
2022-12-13T14:36:24.236Z,-1.7
2022-12-13T14:38:25.275Z,-1.8
2022-12-13T14:40:26.283Z,-1.8
2022-12-13T14:42:30.574Z,-1.8
2022-12-13T14:44:31.637Z,-1.8
2022-12-13T14:46:32.695Z,-1.7
2022-12-13T14:47:34.822Z,-1.8
2022-12-13T14:49:35.824Z,-1.8
2022-12-13T14:51:36.849Z,-1.8
2022-12-13T14:53:37.884Z,-1.8
2022-12-13T14:59:48.526Z,-1.8
2022-12-13T15:01:45.248Z,-1.9
2022-12-13T15:03:46.333Z,-1.9
2022-12-13T15:05:50.473Z,-1.9
2022-12-13T15:07:48.312Z,-2
2022-12-13T15:09:52.616Z,-2
2022-12-13T15:11:53.632Z,-2
2022-12-13T15:13:54.679Z,-1.9
2022-12-13T15:15:55.777Z,-1.9
2022-12-13T15:17:56.721Z,-2
2022-12-13T15:19:57.787Z,-2
2022-12-13T15:22:01.943Z,-2
2022-12-13T15:24:03.120Z,-2
2022-12-13T15:28:05.111Z,-2
2022-12-13T15:30:06.139Z,-2
2022-12-13T15:32:07.213Z,-2
2022-12-13T15:34:08.183Z,-2
2022-12-13T15:36:09.216Z,-2
2022-12-13T15:38:13.497Z,-2
2022-12-13T15:42:15.634Z,-2.1
2022-12-13T15:43:17.907Z,-2
2022-12-13T15:45:18.996Z,-2.1
2022-12-13T15:49:21.127Z,-2
2022-12-13T15:53:27.037Z,-2
2022-12-13T15:55:28.772Z,-2
2022-12-13T15:57:28.523Z,-2
2022-12-13T15:59:29.530Z,-2
2022-12-13T16:01:30.604Z,-2
2022-12-13T16:03:31.770Z,-2.1
2022-12-13T16:05:35.833Z,-2.1
2022-12-13T16:07:36.837Z,-2.1
2022-12-13T16:09:37.875Z,-2.1
2022-12-13T16:11:38.900Z,-2.1
2022-12-13T16:13:39.986Z,-2.1
2022-12-13T16:15:40.970Z,-2.1
2022-12-13T16:17:41.993Z,-2.1
2022-12-13T16:19:46.310Z,-2.1
2022-12-13T16:21:47.367Z,-2.1
2022-12-13T16:23:49.295Z,-2.2
2022-12-13T16:25:49.394Z,-2.2
2022-12-13T16:27:50.439Z,-2.1
2022-12-13T16:29:51.508Z,-2.1
2022-12-13T16:31:54.900Z,-2.2
2022-12-13T16:33:56.810Z,-2.2
2022-12-13T16:35:57.858Z,-2.2
2022-12-13T16:37:59.166Z,-2.2
2022-12-13T16:40:27.409Z,-2.2
2022-12-13T16:42:28.412Z,-2.3
2022-12-13T16:48:34.840Z,-2.2
2022-12-13T16:50:35.807Z,-2.2
2022-12-13T16:52:36.838Z,-2.2
2022-12-13T16:54:37.848Z,-2.2
2022-12-13T16:56:38.903Z,-2.2
2022-12-13T16:58:42.399Z,-2.2
2022-12-13T17:04:46.303Z,-2.2
2022-12-13T17:06:47.332Z,-2.2
2022-12-13T17:08:48.403Z,-2.2
2022-12-13T17:10:49.439Z,-2.3
2022-12-13T17:14:54.729Z,-2.3
2022-12-13T17:16:55.979Z,-2.3
2022-12-13T17:18:56.815Z,-2.3
2022-12-13T17:20:58.478Z,-2.3
2022-12-13T17:22:58.901Z,-2.3
2022-12-13T17:24:59.938Z,-2.3
2022-12-13T17:27:00.980Z,-2.4
2022-12-13T17:29:05.333Z,-2.4
2022-12-13T17:31:06.464Z,-2.4
2022-12-13T17:33:07.399Z,-2.4
2022-12-13T17:34:09.528Z,-2.4
2022-12-13T17:36:10.587Z,-2.4
2022-12-13T17:38:11.642Z,-2.4
2022-12-13T17:40:12.664Z,-2.4
2022-12-13T17:42:16.915Z,-2.4
2022-12-13T17:44:17.949Z,-2.4
2022-12-13T17:46:19.147Z,-2.4
2022-12-13T17:48:20.043Z,-2.4
2022-12-13T17:50:21.041Z,-2.4
2022-12-13T17:52:22.104Z,-2.4
2022-12-13T17:54:23.224Z,-2.4
2022-12-13T17:56:27.740Z,-2.4
2022-12-13T17:58:29.253Z,-2.4
2022-12-13T18:00:29.947Z,-2.4
2022-12-13T18:02:31.039Z,-2.4
2022-12-13T18:04:32.024Z,-2.4
2022-12-13T18:06:33.049Z,-2.4
2022-12-13T18:08:34.077Z,-2.4
2022-12-13T18:10:38.414Z,-2.4
2022-12-13T18:12:39.389Z,-2.4
2022-12-13T18:14:40.403Z,-2.3
2022-12-13T18:16:41.443Z,-2.4
2022-12-13T18:18:42.447Z,-2.3
2022-12-13T18:20:43.511Z,-2.4
2022-12-13T18:22:49.738Z,-2.4
2022-12-13T18:24:50.362Z,-2.3
2022-12-13T18:26:51.434Z,-2.3
2022-12-13T18:29:55.525Z,-2.3
2022-12-13T18:35:57.649Z,-2.3
2022-12-13T18:38:01.966Z,-2.3
2022-12-13T18:40:03.007Z,-2.3
2022-12-13T18:42:03.999Z,-2.3
2022-12-13T18:44:05.039Z,-2.3
2022-12-13T18:46:06.143Z,-2.3
2022-12-13T18:48:07.095Z,-2.3
2022-12-13T18:50:08.128Z,-2.3
2022-12-13T18:52:12.396Z,-2.3
2022-12-13T18:54:13.463Z,-2.3
2022-12-13T18:56:18.897Z,-2.3
2022-12-13T19:25:37.897Z,-2.4
2022-12-13T19:27:38.917Z,-2.4
2022-12-13T19:29:39.941Z,-2.5
2022-12-13T19:31:41.033Z,-2.5
2022-12-13T19:33:45.274Z,-2.5
2022-12-13T19:35:46.303Z,-2.5
2022-12-13T19:37:47.327Z,-2.6
2022-12-13T19:39:48.323Z,-2.6
2022-12-13T19:41:49.332Z,-2.6
2022-12-13T19:43:52.754Z,-2.6
2022-12-13T19:45:51.382Z,-2.6
2022-12-13T19:47:55.643Z,-2.7
2022-12-13T19:49:56.655Z,-2.7
2022-12-13T19:51:57.721Z,-2.7
2022-12-13T19:53:58.707Z,-2.7
2022-12-13T19:55:59.701Z,-2.7
2022-12-13T19:58:00.695Z,-2.7
2022-12-13T20:00:01.747Z,-2.7
2022-12-13T20:02:06.161Z,-2.7
2022-12-13T20:04:07.103Z,-2.7
2022-12-13T20:06:08.102Z,-2.7
2022-12-13T20:08:09.115Z,-2.7
2022-12-13T20:10:10.145Z,-2.7
2022-12-13T20:12:11.149Z,-2.7
2022-12-13T20:14:12.136Z,-2.7
2022-12-13T20:16:16.441Z,-2.7
2022-12-13T20:18:17.448Z,-2.7
2022-12-13T20:20:18.501Z,-2.6
2022-12-13T20:22:48.507Z,-2.7
2022-12-13T20:24:48.074Z,-2.7
2022-12-13T20:26:48.960Z,-2.7
2022-12-13T20:28:53.224Z,-2.7
2022-12-13T20:30:54.246Z,-2.7
2022-12-13T20:34:56.276Z,-2.7
2022-12-13T20:40:59.306Z,-2.7
2022-12-13T20:43:03.584Z,-2.7
2022-12-13T20:45:04.600Z,-2.7
2022-12-13T20:47:05.622Z,-2.7
2022-12-13T20:49:06.615Z,-2.7
2022-12-13T20:51:07.622Z,-2.7
2022-12-13T20:53:08.627Z,-2.7
2022-12-13T20:55:09.641Z,-2.7
2022-12-13T20:57:14.006Z,-2.8
2022-12-13T20:59:15.060Z,-2.8
2022-12-13T21:01:16.087Z,-2.8
2022-12-13T21:05:20.870Z,-2.8
2022-12-13T21:07:19.325Z,-2.8
2022-12-13T21:09:20.158Z,-2.9
2022-12-13T21:11:24.414Z,-2.8
2022-12-13T21:13:25.719Z,-2.8
2022-12-13T21:15:26.396Z,-2.8
2022-12-13T21:16:28.635Z,-2.8
2022-12-13T21:18:29.574Z,-2.8
2022-12-13T21:20:30.679Z,-2.8
2022-12-13T21:22:31.598Z,-2.7
2022-12-13T21:24:35.867Z,-2.8
2022-12-13T21:26:36.897Z,-2.8
2022-12-13T21:28:37.929Z,-2.8
2022-12-13T21:30:38.900Z,-2.7
2022-12-13T21:32:39.921Z,-2.8
2022-12-13T21:34:40.918Z,-2.7
2022-12-13T21:36:41.952Z,-2.7
2022-12-13T21:38:46.211Z,-2.7
2022-12-13T21:40:47.261Z,-2.7
2022-12-13T21:42:48.268Z,-2.7
2022-12-13T21:44:49.278Z,-2.7
2022-12-13T21:50:52.328Z,-2.7
2022-12-13T21:55:15.216Z,-2.7
2022-12-13T21:56:58.752Z,-2.7
2022-12-13T21:58:59.762Z,-2.7
2022-12-13T22:01:00.836Z,-2.7
2022-12-13T22:03:01.905Z,-2.7
2022-12-13T22:05:03.035Z,-2.7
2022-12-13T22:07:07.385Z,-2.7
2022-12-13T22:09:08.421Z,-2.7
2022-12-13T22:12:11.577Z,-2.6
2022-12-13T22:14:12.583Z,-2.6
2022-12-13T22:16:13.702Z,-2.6
2022-12-13T22:18:14.744Z,-2.6
2022-12-13T22:24:21.454Z,-2.7
2022-12-13T22:26:22.571Z,-2.7
2022-12-13T22:28:24.064Z,-2.6
2022-12-13T22:30:24.818Z,-2.7
2022-12-13T22:32:25.937Z,-2.7
2022-12-13T22:38:32.545Z,-2.7
2022-12-13T22:44:35.601Z,-2.7
2022-12-13T22:46:36.626Z,-2.7
2022-12-13T22:48:41.003Z,-2.8
2022-12-13T22:50:42.126Z,-2.8
2022-12-13T22:52:43.245Z,-2.8
2022-12-13T22:54:44.344Z,-2.8
2022-12-13T22:56:45.374Z,-2.9
2022-12-13T22:58:46.353Z,-2.9
2022-12-13T23:00:47.488Z,-2.9
2022-12-13T23:02:51.744Z,-3
2022-12-13T23:04:52.730Z,-3
2022-12-13T23:06:53.852Z,-3
2022-12-13T23:07:56.093Z,-3
2022-12-13T23:09:57.219Z,-3
2022-12-13T23:11:58.318Z,-3
2022-12-13T23:13:59.451Z,-3
2022-12-13T23:16:03.778Z,-3
2022-12-13T23:18:04.784Z,-3
2022-12-13T23:20:05.922Z,-3.1
2022-12-13T23:22:06.794Z,-3.1
2022-12-13T23:24:07.810Z,-3.1
2022-12-13T23:28:09.798Z,-3.1
2022-12-13T23:30:14.097Z,-3.1
2022-12-13T23:32:15.110Z,-3.1
2022-12-13T23:34:16.222Z,-3.1
2022-12-13T23:36:17.311Z,-3
2022-12-13T23:38:18.550Z,-3
2022-12-13T23:40:19.528Z,-3
2022-12-13T23:42:20.619Z,-3
2022-12-13T23:44:25.130Z,-3.1
2022-12-13T23:46:26.249Z,-3.1
2022-12-13T23:48:27.344Z,-3.1
2022-12-13T23:50:28.410Z,-3.1
2022-12-13T23:52:29.518Z,-3.1
2022-12-13T23:54:30.523Z,-3.1
2022-12-13T23:56:31.605Z,-3.1
2022-12-13T23:58:35.990Z,-3.1
